»·PEaware :: TPX102 KSNA-KFAT

TPX102 :: KSNA-KFAT

FLIGHT INFORMATION

Flight Status: Arrived
Operator: ATP Experience
More flights by this operator :: More flights under this callsign
Pilot: Dave P. (45)
Aircraft: BOEING 737-600
(B736)
More flights by this aircraft type
Origin: KSNA John Wayne-Orange Co
United States
Destination: KFAT Fresno Yosemite Intl
United States
More flights between these airports :: More routes between these airports
Route: +HHERO2 EHF TTE ALTTA8
File this flight plan on PilotEdge
Remarks: PBN / A1B1C1D1S1S2 DOF / 180714 REG / N736PM EET / KZOA0033 OPR / TPX PER / C RMK / TCAS SIMBRIEF
Altitude:
(Current/Filed)
28,000ft
Speed:
(Current/Filed)
457kts
Departed: 13-Jul-18 06:22 PM
Arrived: 13-Jul-18 07:06 PM
Distance/Time
Traveled:
207nm/0:44
Distance/Time
To Go:
Arrived

Flight Plot

Page will automatically refresh every two minutes.

Flight plan parsing failed; only flown route is shown


Map Options




Map Legend


Flown Route
Filed Route
Departure Airport
Arrival Airport
Navaid (VOR, NDB)
Fix

Horizontal Profiles

Position Reports

Time Latitude Longitude Heading Altitude Ground
Speed
13-Jul-18 18:03 33.676069 -117.864387 118 64ft 0kts
13-Jul-18 18:04 33.676069 -117.864387 118 64ft 0kts
13-Jul-18 18:05 33.676069 -117.864387 118 64ft 0kts
13-Jul-18 18:06 33.676069 -117.864387 118 64ft 0kts
13-Jul-18 18:07 33.676069 -117.864387 118 64ft 0kts
13-Jul-18 18:08 33.676069 -117.864387 118 64ft 0kts
13-Jul-18 18:09 33.676069 -117.864387 118 64ft 0kts
13-Jul-18 18:10 33.676069 -117.864387 118 64ft 0kts
13-Jul-18 18:11 33.676069 -117.864387 118 64ft 0kts
13-Jul-18 18:12 33.676069 -117.864387 118 64ft 0kts
13-Jul-18 18:13 33.676069 -117.864387 118 64ft 0kts
13-Jul-18 18:14 33.676069 -117.864387 118 64ft 0kts
13-Jul-18 18:15 33.676069 -117.864387 118 64ft 0kts
13-Jul-18 18:16 33.676109 -117.864475 118 64ft 2kts
13-Jul-18 18:17 33.676067 -117.865178 49 63ft 0kts
13-Jul-18 18:18 33.676067 -117.865178 49 63ft 0kts
13-Jul-18 18:19 33.676077 -117.865165 46 63ft 1kts
13-Jul-18 18:20 33.679711 -117.862939 27 63ft 12kts
13-Jul-18 18:21 33.681140 -117.864245 298 63ft 0kts
13-Jul-18 18:22 33.680756 -117.865685 207 64ft 23kts
13-Jul-18 18:23 33.651796 -117.882763 207 1426ft 142kts
13-Jul-18 18:24 33.604031 -117.894761 187 3167ft 221kts
13-Jul-18 18:25 33.542439 -117.931756 222 5918ft 274kts
13-Jul-18 18:26 33.485558 -117.997259 227 7986ft 290kts
13-Jul-18 18:27 33.441611 -118.081023 239 10849ft 306kts
13-Jul-18 18:28 33.415966 -118.187463 278 12897ft 367kts
13-Jul-18 18:29 33.443457 -118.307572 290 15774ft 382kts
13-Jul-18 18:30 33.491917 -118.420386 297 16049ft 381kts
13-Jul-18 18:31 33.577892 -118.486734 359 18551ft 401kts
13-Jul-18 18:32 33.689867 -118.464843 4 20892ft 420kts
13-Jul-18 18:33 33.809056 -118.458609 357 23008ft 436kts
13-Jul-18 18:34 33.932102 -118.459669 358 24909ft 450kts
13-Jul-18 18:35 34.058367 -118.467258 350 26676ft 460kts
13-Jul-18 18:36 34.186707 -118.487853 351 27996ft 469kts
13-Jul-18 18:37 34.315826 -118.507997 351 28016ft 465kts
13-Jul-18 18:38 34.444276 -118.527849 351 28068ft 466kts
13-Jul-18 18:39 34.572830 -118.547767 351 28127ft 466kts
13-Jul-18 18:40 34.701325 -118.567730 351 28187ft 466kts
13-Jul-18 18:41 34.830597 -118.587869 351 28230ft 466kts
13-Jul-18 18:42 34.959389 -118.608060 350 28213ft 467kts
13-Jul-18 18:43 35.073234 -118.676255 318 28196ft 458kts
13-Jul-18 18:44 35.170523 -118.776311 317 28154ft 458kts
13-Jul-18 18:45 35.268778 -118.876439 317 28069ft 459kts
13-Jul-18 18:46 35.366834 -118.976456 317 27634ft 452kts
13-Jul-18 18:47 35.464537 -119.071395 331 24628ft 445kts
13-Jul-18 18:48 35.583363 -119.079411 6 24061ft 414kts
13-Jul-18 18:49 35.689735 -119.060803 6 23546ft 366kts
13-Jul-18 18:50 35.797537 -119.041541 7 19481ft 410kts
13-Jul-18 18:51 35.908721 -119.027098 353 17535ft 394kts
13-Jul-18 18:52 36.012026 -119.067600 338 15894ft 387kts
13-Jul-18 18:53 36.111196 -119.115064 338 14277ft 375kts
13-Jul-18 18:54 36.203234 -119.159124 338 13987ft 327kts
13-Jul-18 18:55 36.279079 -119.195262 338 13953ft 259kts
13-Jul-18 18:56 36.343832 -119.226210 338 12861ft 257kts
13-Jul-18 18:57 36.416939 -119.261558 338 10272ft 291kts
13-Jul-18 18:58 36.490828 -119.296249 338 8153ft 277kts
13-Jul-18 18:59 36.561256 -119.328984 338 6369ft 249kts
13-Jul-18 19:00 36.604530 -119.387403 302 5101ft 230kts
13-Jul-18 19:01 36.634780 -119.452054 292 4135ft 202kts
13-Jul-18 19:02 36.660047 -119.513646 305 3920ft 188kts
13-Jul-18 19:03 36.688441 -119.562908 305 3028ft 168kts
13-Jul-18 19:04 36.715387 -119.609992 305 2155ft 163kts
13-Jul-18 19:05 36.739116 -119.651494 306 1349ft 128kts
13-Jul-18 19:06 36.759778 -119.687658 306 679ft 127kts
13-Jul-18 19:07 36.775805 -119.716131 256 344ft 14kts
13-Jul-18 19:08 36.774912 -119.719520 206 344ft 7kts
13-Jul-18 19:09 36.772465 -119.718458 152 344ft 8kts
13-Jul-18 19:10 36.771609 -119.717993 153 344ft 0kts
13-Jul-18 19:11 36.771609 -119.717993 153 344ft 0kts
13-Jul-18 19:12 36.771609 -119.717993 153 344ft 0kts

Navigation Log

Ident Type
Flight plan parsing failed, navigation log unavailable